Time;durP1;ratioP1;P1;durP2;ratioP2;P2;SDS_P1;SDS_P2;PMS_P1;PMS_P2;Temp;Humidity;BMP_temperature;BMP_pressure;BME280_temperature;BME280_humidity;BME280_pressure;Samples;Min_cycle;Max_cycle;Signal;HPM_P1;HPM_P2
2022/08/08 00:01:00;;;;;;;2.03;1.93;;;23.90;53.80;;;;;;5052081;28;20531;-55
2022/08/08 00:03:37;;;;;;;2.07;1.97;;;23.90;53.90;;;;;;5051992;28;20567;-52
2022/08/08 00:06:12;;;;;;;2.60;2.40;;;23.90;53.90;;;;;;5053579;28;20436;-52
2022/08/08 00:08:46;;;;;;;2.10;2.00;;;23.90;53.90;;;;;;5054940;28;20452;-50
2022/08/08 00:11:23;;;;;;;2.27;2.17;;;23.90;54.10;;;;;;5054235;28;20531;-55
2022/08/08 00:14:01;;;;;;;2.20;2.10;;;23.90;54.00;;;;;;5051793;28;20546;-55
2022/08/08 00:16:35;;;;;;;2.80;2.60;;;23.90;54.10;;;;;;5051543;28;20451;-52
2022/08/08 00:19:14;;;;;;;3.37;3.07;;;23.90;54.30;;;;;;5051992;28;20471;-52
2022/08/08 00:21:46;;;;;;;1.80;1.70;;;23.90;54.30;;;;;;5052838;28;20483;-52
2022/08/08 00:24:18;;;;;;;2.47;2.37;;;23.90;54.40;;;;;;5051478;28;20526;-52
2022/08/08 00:26:50;;;;;;;2.07;1.97;;;23.80;54.30;;;;;;5051723;28;20545;-52
2022/08/08 00:29:23;;;;;;;1.90;1.80;;;23.80;54.40;;;;;;5051877;28;20535;-51
2022/08/08 00:31:57;;;;;;;2.13;2.03;;;23.80;54.50;;;;;;5051625;28;20498;-52
2022/08/08 00:37:33;;;;;;;2.03;1.83;;;23.80;54.50;;;;;;5055841;28;20434;-55
2022/08/08 00:40:21;;;;;;;2.13;2.00;;;23.80;54.60;;;;;;5071592;28;20469;-53
2022/08/08 00:43:13;;;;;;;1.97;1.87;;;23.80;54.80;;;;;;5071449;28;21047;-58
2022/08/08 00:46:00;;;;;;;1.93;1.83;;;23.70;54.80;;;;;;5065247;28;20578;-52
2022/08/08 00:48:58;;;;;;;4.27;2.07;;;23.70;54.90;;;;;;5051589;28;20537;-53
2022/08/08 00:52:06;;;;;;;2.00;1.90;;;23.70;55.00;;;;;;5051490;28;20444;-53
2022/08/08 00:55:10;;;;;;;1.97;1.87;;;23.70;55.00;;;;;;5037887;28;20468;-56
2022/08/08 00:58:19;;;;;;;2.20;2.10;;;23.70;55.10;;;;;;5051460;28;20937;-54
2022/08/08 01:00:57;;;;;;;2.33;2.13;;;23.70;55.20;;;;;;5051474;28;20480;-53
2022/08/08 01:03:51;;;;;;;1.77;1.67;;;23.70;55.40;;;;;;5051305;28;20515;-53
2022/08/08 01:07:00;;;;;;;2.70;2.60;;;23.70;55.50;;;;;;5051448;28;20468;-53
2022/08/08 01:10:12;;;;;;;2.30;2.20;;;23.60;56.00;;;;;;5051564;28;20479;-54
2022/08/08 01:13:04;;;;;;;2.90;2.70;;;23.60;55.60;;;;;;5031189;28;20528;-57
2022/08/08 01:16:04;;;;;;;2.27;2.17;;;23.60;55.80;;;;;;5031210;28;20548;-59
2022/08/08 01:19:02;;;;;;;2.47;2.37;;;23.60;55.80;;;;;;5031493;28;20468;-59
2022/08/08 01:21:49;;;;;;;2.00;1.90;;;23.60;55.90;;;;;;5038372;28;21019;-59
2022/08/08 01:24:36;;;;;;;1.87;1.77;;;23.60;56.10;;;;;;5050938;28;20492;-53
2022/08/08 01:27:38;;;;;;;1.80;1.70;;;23.60;56.20;;;;;;5051021;28;20450;-54
2022/08/08 01:30:32;;;;;;;2.73;2.53;;;23.50;56.10;;;;;;5054935;28;20535;-52
2022/08/08 01:33:39;;;;;;;3.13;2.93;;;23.50;56.30;;;;;;5054803;28;20518;-52
2022/08/08 01:36:40;;;;;;;2.97;2.80;;;23.50;56.40;;;;;;5054645;28;20455;-53
2022/08/08 01:39:25;;;;;;;2.33;2.23;;;23.50;56.40;;;;;;5037855;28;20539;-53
2022/08/08 01:42:01;;;;;;;2.10;1.90;;;23.50;56.50;;;;;;5054603;28;20553;-56
2022/08/08 01:44:53;;;;;;;2.77;2.53;;;23.50;56.60;;;;;;5054504;28;21028;-57
2022/08/08 01:47:33;;;;;;;2.57;2.37;;;23.50;56.70;;;;;;5054646;28;20515;-55
2022/08/08 01:50:08;;;;;;;2.23;2.10;;;23.50;56.70;;;;;;5054506;28;20467;-54
2022/08/08 01:52:44;;;;;;;2.27;2.17;;;23.50;56.80;;;;;;5072329;28;20470;-53
2022/08/08 01:55:19;;;;;;;2.90;2.70;;;23.50;56.90;;;;;;5074138;28;20546;-52
2022/08/08 01:58:03;;;;;;;2.40;2.30;;;23.50;56.90;;;;;;5074388;28;20522;-55
2022/08/08 02:00:40;;;;;;;1.60;1.60;;;23.50;57.00;;;;;;5074382;28;21024;-53
2022/08/08 02:03:25;;;;;;;2.50;2.30;;;23.50;57.00;;;;;;5074201;28;20485;-59
2022/08/08 02:05:59;;;;;;;2.20;2.10;;;23.40;57.10;;;;;;5074161;28;20451;-53
2022/08/08 02:08:41;;;;;;;2.87;2.77;;;23.40;57.10;;;;;;5072697;28;20501;-54
2022/08/08 02:11:19;;;;;;;3.10;2.73;;;23.40;57.30;;;;;;5074159;28;20526;-52
2022/08/08 02:13:53;;;;;;;2.30;2.20;;;23.40;57.30;;;;;;5073933;28;20517;-55
2022/08/08 02:16:28;;;;;;;2.30;2.20;;;23.40;57.40;;;;;;5074118;28;20479;-54
2022/08/08 02:19:02;;;;;;;2.23;2.13;;;23.40;57.50;;;;;;5074116;28;20446;-53
2022/08/08 02:24:27;;;;;;;2.23;2.13;;;23.30;57.60;;;;;;5053735;28;20562;-52
2022/08/08 02:27:02;;;;;;;5.10;3.07;;;23.30;57.70;;;;;;5053924;28;20450;-52
2022/08/08 02:29:50;;;;;;;2.50;2.27;;;23.30;57.80;;;;;;5053861;28;20448;-55
2022/08/08 02:33:02;;;;;;;2.30;2.20;;;23.40;57.80;;;;;;5053701;28;20448;-58
2022/08/08 02:36:00;;;;;;;2.90;2.70;;;23.30;57.80;;;;;;5049377;28;20483;-53
2022/08/08 02:38:53;;;;;;;3.43;3.23;;;23.30;57.90;;;;;;5053615;28;20440;-51
2022/08/08 02:41:44;;;;;;;2.70;2.60;;;23.30;58.00;;;;;;5053604;28;20455;-53
2022/08/08 02:44:42;;;;;;;2.77;2.60;;;23.30;58.10;;;;;;5053190;28;20985;-52
2022/08/08 02:47:59;;;;;;;2.60;2.40;;;23.20;58.10;;;;;;5053614;28;20897;-53
2022/08/08 02:51:04;;;;;;;2.33;2.20;;;23.20;58.20;;;;;;5051148;28;20476;-55
2022/08/08 02:53:55;;;;;;;2.13;2.03;;;23.20;58.30;;;;;;5053168;28;20490;-53
2022/08/08 02:56:55;;;;;;;2.50;2.37;;;23.20;58.30;;;;;;5053860;28;20494;-52
2022/08/08 03:00:13;;;;;;;2.67;2.47;;;23.20;58.50;;;;;;5053197;28;20472;-50
2022/08/08 03:03:33;;;;;;;2.33;2.23;;;23.20;58.80;;;;;;5062393;28;20471;-55
2022/08/08 03:06:22;;;;;;;3.30;2.60;;;23.10;58.70;;;;;;5072969;28;20506;-53
2022/08/08 03:09:46;;;;;;;2.60;2.40;;;23.10;58.80;;;;;;5073061;28;21039;-53
2022/08/08 03:12:42;;;;;;;2.40;2.30;;;23.10;58.80;;;;;;5072717;28;20562;-54
2022/08/08 03:15:40;;;;;;;2.73;2.53;;;23.10;58.90;;;;;;5072786;28;20901;-50
2022/08/08 03:18:13;;;;;;;2.40;2.30;;;23.10;58.90;;;;;;5033072;28;20437;-53
2022/08/08 03:20:44;;;;;;;2.70;2.60;;;23.10;58.80;;;;;;5032950;28;20859;-56
2022/08/08 03:23:12;;;;;;;2.17;2.07;;;23.10;58.90;;;;;;5032702;28;20492;-51
2022/08/08 03:25:40;;;;;;;3.23;2.87;;;23.10;59.00;;;;;;5032648;28;20564;-51
2022/08/08 03:28:17;;;;;;;2.67;2.47;;;23.10;59.10;;;;;;5032825;28;20773;-52
2022/08/08 03:30:45;;;;;;;2.63;2.43;;;23.10;59.10;;;;;;5062784;28;20534;-53
2022/08/08 03:33:17;;;;;;;2.97;2.77;;;23.10;59.20;;;;;;5072527;28;20447;-55
2022/08/08 03:35:46;;;;;;;2.20;2.10;;;23.10;59.20;;;;;;5072401;28;20443;-50
2022/08/08 03:38:15;;;;;;;2.80;2.60;;;23.10;59.20;;;;;;5064577;28;20480;-50
2022/08/08 03:40:50;;;;;;;3.20;3.00;;;23.10;59.30;;;;;;5052398;28;20495;-55
2022/08/08 03:43:17;;;;;;;2.30;2.20;;;23.10;59.40;;;;;;5057291;28;20475;-51
2022/08/08 03:45:44;;;;;;;1.97;1.87;;;23.10;59.40;;;;;;5072148;28;20966;-54
2022/08/08 03:48:11;;;;;;;2.47;2.37;;;23.10;59.40;;;;;;5072248;28;20454;-56
2022/08/08 03:50:42;;;;;;;2.90;2.70;;;23.00;59.40;;;;;;5071888;28;20443;-55
2022/08/08 03:53:11;;;;;;;2.30;2.20;;;23.00;59.70;;;;;;5072142;28;20505;-51
2022/08/08 03:55:40;;;;;;;2.77;2.30;;;23.00;59.80;;;;;;5071961;28;20445;-55
2022/08/08 03:58:08;;;;;;;2.90;2.70;;;23.00;59.90;;;;;;5056994;28;20475;-55
2022/08/08 04:00:36;;;;;;;2.80;2.33;;;23.00;59.90;;;;;;5052083;28;20468;-50
2022/08/08 04:03:05;;;;;;;2.80;2.60;;;22.90;59.90;;;;;;5051905;28;20480;-55
2022/08/08 04:05:34;;;;;;;2.20;2.10;;;22.90;60.10;;;;;;5052080;28;20452;-52
2022/08/08 04:08:02;;;;;;;2.40;2.30;;;22.90;60.20;;;;;;5072003;28;20974;-56
2022/08/08 04:10:31;;;;;;;3.67;3.10;;;22.90;60.50;;;;;;5071944;28;20448;-53
2022/08/08 04:12:59;;;;;;;2.50;2.33;;;22.90;60.80;;;;;;5071919;28;20808;-52
2022/08/08 04:15:26;;;;;;;3.53;3.23;;;22.90;62.50;;;;;;5071780;28;20475;-49
2022/08/08 04:17:53;;;;;;;3.30;3.10;;;22.80;62.80;;;;;;5071820;28;20443;-49
2022/08/08 04:20:20;;;;;;;4.07;3.10;;;22.70;62.50;;;;;;5061870;28;20883;-51
2022/08/08 04:22:48;;;;;;;3.10;2.90;;;22.50;63.20;;;;;;5051658;28;20533;-52
2022/08/08 04:25:14;;;;;;;5.90;5.30;;;22.30;64.40;;;;;;5051509;28;20464;-49
2022/08/08 04:27:41;;;;;;;2.73;2.63;;;22.20;65.50;;;;;;5051730;28;20532;-51
2022/08/08 04:30:11;;;;;;;3.33;3.13;;;22.30;65.80;;;;;;5051727;28;20850;-49
2022/08/08 04:32:38;;;;;;;3.80;3.50;;;22.30;65.70;;;;;;5051797;28;20491;-51
2022/08/08 04:35:06;;;;;;;3.20;3.00;;;22.30;66.20;;;;;;5069443;28;21040;-49
2022/08/08 04:37:33;;;;;;;3.50;3.20;;;22.30;66.40;;;;;;5071688;28;20824;-49
2022/08/08 04:40:00;;;;;;;3.20;3.03;;;22.30;66.90;;;;;;5071672;28;20537;-52
2022/08/08 04:42:30;;;;;;;3.10;2.90;;;22.10;67.00;;;;;;5071482;28;20825;-53
2022/08/08 04:44:57;;;;;;;4.03;3.73;;;22.00;69.20;;;;;;5071174;28;20510;-51
2022/08/08 04:47:25;;;;;;;3.30;3.03;;;22.00;68.80;;;;;;5064357;28;20475;-55
2022/08/08 04:49:52;;;;;;;2.93;2.70;;;22.00;68.80;;;;;;5051495;28;20444;-52
2022/08/08 04:52:19;;;;;;;3.77;3.30;;;22.00;68.60;;;;;;5051443;28;20534;-50
2022/08/08 04:54:46;;;;;;;4.07;2.87;;;22.00;68.60;;;;;;5051102;28;20460;-50
2022/08/08 04:57:13;;;;;;;2.67;2.57;;;22.00;69.30;;;;;;5051255;28;20839;-50
2022/08/08 04:59:40;;;;;;;3.23;3.03;;;22.10;69.60;;;;;;5051576;28;20574;-49
2022/08/08 05:02:07;;;;;;;2.60;2.50;;;22.00;70.50;;;;;;5066360;28;20874;-49
2022/08/08 05:04:35;;;;;;;5.10;3.57;;;21.90;70.70;;;;;;5074355;28;20507;-49
2022/08/08 05:07:02;;;;;;;3.13;2.93;;;22.00;70.90;;;;;;5075577;28;20967;-49
2022/08/08 05:09:29;;;;;;;3.50;3.20;;;22.00;70.70;;;;;;5075342;28;20906;-49
2022/08/08 05:11:56;;;;;;;4.17;2.97;;;22.00;71.20;;;;;;5075288;28;20802;-49
2022/08/08 05:14:23;;;;;;;2.90;2.70;;;21.80;71.90;;;;;;5071835;28;20460;-50
2022/08/08 05:16:50;;;;;;;3.83;3.37;;;21.80;72.40;;;;;;5058397;28;20475;-49
2022/08/08 05:19:17;;;;;;;4.30;3.23;;;21.80;72.50;;;;;;5075057;28;20479;-50
2022/08/08 05:21:45;;;;;;;3.73;3.40;;;21.80;72.70;;;;;;5075105;28;21008;-49
2022/08/08 05:24:12;;;;;;;3.50;3.20;;;21.80;73.10;;;;;;5059572;28;20519;-51
2022/08/08 05:26:40;;;;;;;3.87;2.90;;;21.80;73.00;;;;;;5054821;28;20498;-52
2022/08/08 05:29:08;;;;;;;3.40;3.20;;;21.80;73.20;;;;;;5066072;28;20447;-50
2022/08/08 05:31:35;;;;;;;3.80;2.47;;;21.80;73.30;;;;;;5074837;28;20960;-49
2022/08/08 05:34:03;;;;;;;3.07;2.87;;;21.90;73.30;;;;;;5074664;28;20501;-49
2022/08/08 05:36:34;;;;;;;2.87;2.77;;;21.90;72.90;;;;;;5074773;28;20816;-50
2022/08/08 05:39:05;;;;;;;3.40;3.20;;;21.90;73.00;;;;;;5074732;28;20493;-50
2022/08/08 05:41:36;;;;;;;3.80;3.50;;;21.90;72.90;;;;;;5073513;28;20455;-49
2022/08/08 05:44:06;;;;;;;2.90;2.70;;;21.80;73.50;;;;;;5054324;28;20571;-50
2022/08/08 05:46:34;;;;;;;5.87;3.30;;;21.80;73.70;;;;;;5054525;28;20773;-51
2022/08/08 05:49:04;;;;;;;3.50;3.23;;;21.80;74.10;;;;;;5054541;28;20551;-51
2022/08/08 05:51:31;;;;;;;3.30;3.10;;;21.90;73.70;;;;;;5054547;28;20444;-52
2022/08/08 05:53:58;;;;;;;3.83;3.20;;;21.90;74.30;;;;;;5054131;28;21051;-53
2022/08/08 05:56:27;;;;;;;4.00;3.70;;;21.90;74.10;;;;;;5064741;28;20939;-50
2022/08/08 05:59:02;;;;;;;3.77;3.47;;;21.90;73.50;;;;;;5074400;28;20530;-49
2022/08/08 06:01:30;;;;;;;3.50;3.20;;;22.00;72.80;;;;;;5074358;28;20442;-49
2022/08/08 06:04:01;;;;;;;4.93;3.33;;;22.00;72.80;;;;;;5074003;28;20528;-48
2022/08/08 06:06:29;;;;;;;4.50;3.90;;;21.80;73.10;;;;;;5074320;28;20454;-55
2022/08/08 06:08:59;;;;;;;3.77;3.50;;;21.90;73.40;;;;;;5073064;28;20856;-54
2022/08/08 06:11:31;;;;;;;4.30;3.90;;;21.90;73.00;;;;;;5054058;28;20510;-54
2022/08/08 06:13:58;;;;;;;7.90;4.90;;;21.90;73.00;;;;;;5053556;28;20777;-51
2022/08/08 06:16:26;;;;;;;3.40;3.10;;;21.90;73.20;;;;;;5054091;28;20484;-50
2022/08/08 06:18:54;;;;;;;3.60;3.30;;;21.80;73.10;;;;;;5053948;28;20543;-51
2022/08/08 06:21:21;;;;;;;7.63;2.90;;;21.90;73.90;;;;;;5054048;28;20954;-51
2022/08/08 06:23:48;;;;;;;3.40;3.20;;;21.90;73.60;;;;;;5063848;28;20564;-52
2022/08/08 06:26:15;;;;;;;3.90;3.60;;;21.80;73.60;;;;;;5073792;28;20443;-49
2022/08/08 06:28:50;;;;;;;4.33;3.87;;;21.80;74.10;;;;;;5073892;28;20723;-49
2022/08/08 06:31:20;;;;;;;3.20;3.00;;;21.80;74.10;;;;;;5073975;28;20443;-49
2022/08/08 06:33:51;;;;;;;3.47;3.27;;;21.90;73.50;;;;;;5073447;28;20495;-51
2022/08/08 06:36:35;;;;;;;3.53;3.20;;;22.00;73.30;;;;;;5073006;28;20977;-54
2022/08/08 06:39:04;;;;;;;3.73;3.37;;;22.10;72.80;;;;;;5033762;28;20980;-49
2022/08/08 06:41:33;;;;;;;3.00;2.77;;;22.20;72.00;;;;;;5033573;28;20854;-53
2022/08/08 06:44:03;;;;;;;3.90;3.60;;;22.20;72.40;;;;;;5033283;28;20504;-51
2022/08/08 06:46:31;;;;;;;3.37;3.07;;;22.20;72.40;;;;;;5033605;28;20917;-49
2022/08/08 06:48:58;;;;;;;3.93;2.90;;;22.20;71.90;;;;;;5033448;28;20484;-51
2022/08/08 06:51:25;;;;;;;3.50;3.20;;;22.30;71.80;;;;;;5057941;28;20960;-49
2022/08/08 06:53:52;;;;;;;3.20;3.00;;;22.30;71.60;;;;;;5073159;28;20456;-49
2022/08/08 06:56:19;;;;;;;4.10;3.43;;;22.30;72.00;;;;;;5073505;28;20530;-49
2022/08/08 06:58:46;;;;;;;3.10;2.77;;;22.30;71.80;;;;;;5073337;28;20486;-51
2022/08/08 07:01:17;;;;;;;3.30;3.00;;;22.40;72.00;;;;;;5073191;28;20533;-53
2022/08/08 07:03:52;;;;;;;3.20;3.00;;;22.40;72.10;;;;;;5071863;28;20545;-50
2022/08/08 07:06:23;;;;;;;3.27;3.07;;;22.40;72.30;;;;;;5033259;28;20447;-50
2022/08/08 07:08:55;;;;;;;3.60;3.30;;;22.40;72.70;;;;;;5033135;28;20452;-51
2022/08/08 07:11:29;;;;;;;5.10;4.37;;;22.30;73.10;;;;;;5033198;28;20528;-52
2022/08/08 07:14:00;;;;;;;5.43;3.23;;;22.40;73.00;;;;;;5032743;28;20873;-52
2022/08/08 07:16:38;;;;;;;5.07;3.43;;;22.40;73.60;;;;;;5033069;28;20929;-51
2022/08/08 07:19:12;;;;;;;3.40;3.10;;;22.40;73.50;;;;;;5048864;28;20444;-51
2022/08/08 07:21:53;;;;;;;3.00;2.80;;;22.40;73.50;;;;;;5052802;28;20444;-49
2022/08/08 07:24:26;;;;;;;4.10;3.67;;;22.50;73.40;;;;;;5052391;28;20483;-52
2022/08/08 07:26:54;;;;;;;4.27;3.20;;;22.50;73.50;;;;;;5052073;28;20977;-51
2022/08/08 07:29:21;;;;;;;3.57;3.30;;;22.50;73.50;;;;;;5052670;28;20509;-50
2022/08/08 07:31:50;;;;;;;4.30;3.27;;;22.50;73.40;;;;;;5058788;28;20482;-49
2022/08/08 07:34:18;;;;;;;3.70;3.40;;;22.50;73.70;;;;;;5072325;28;20463;-50
2022/08/08 07:36:48;;;;;;;3.07;2.87;;;22.50;73.40;;;;;;5072332;28;20447;-51
2022/08/08 07:39:17;;;;;;;3.30;2.90;;;22.50;74.10;;;;;;5072478;28;20573;-52
2022/08/08 07:41:46;;;;;;;3.83;2.97;;;22.60;73.70;;;;;;5072413;28;20451;-50
2022/08/08 07:44:17;;;;;;;3.43;3.17;;;22.50;73.80;;;;;;5072012;28;20897;-53
2022/08/08 07:46:44;;;;;;;3.10;2.90;;;22.60;73.70;;;;;;5055579;28;20452;-53
2022/08/08 07:49:12;;;;;;;4.60;3.93;;;22.60;74.40;;;;;;5051760;28;20513;-58
2022/08/08 07:51:41;;;;;;;4.23;3.90;;;22.60;77.40;;;;;;5051961;28;20475;-54
2022/08/08 07:54:15;;;;;;;4.53;3.30;;;22.70;77.80;;;;;;5052025;28;20460;-53
2022/08/08 07:56:50;;;;;;;2.80;2.60;;;22.80;77.00;;;;;;5052085;28;20447;-55
2022/08/08 07:59:17;;;;;;;3.83;3.53;;;23.00;78.60;;;;;;5052180;28;20497;-54
2022/08/08 08:01:56;;;;;;;5.23;2.73;;;23.00;75.20;;;;;;5052096;28;20860;-48
2022/08/08 08:04:30;;;;;;;2.63;2.43;;;23.10;74.00;;;;;;5063469;28;20490;-48
2022/08/08 08:06:59;;;;;;;3.60;3.37;;;23.30;72.90;;;;;;5071940;28;20526;-49
2022/08/08 08:09:30;;;;;;;3.40;3.20;;;23.40;72.30;;;;;;5071998;28;20444;-49
2022/08/08 08:11:59;;;;;;;4.00;3.70;;;23.40;71.00;;;;;;5071935;28;20482;-57
2022/08/08 08:14:30;;;;;;;3.67;3.47;;;23.50;71.80;;;;;;5071660;28;20547;-50
2022/08/08 08:16:58;;;;;;;4.33;3.97;;;23.60;70.30;;;;;;5071716;28;20538;-59
2022/08/08 08:19:31;;;;;;;4.23;4.03;;;23.60;69.50;;;;;;5069892;28;20458;-59
2022/08/08 08:21:58;;;;;;;4.83;3.03;;;23.50;69.40;;;;;;5071813;28;20538;-59
2022/08/08 08:24:26;;;;;;;3.40;3.20;;;23.50;69.60;;;;;;5071519;28;20486;-59
2022/08/08 08:26:53;;;;;;;2.97;2.77;;;23.60;68.90;;;;;;5071711;28;20477;-59
2022/08/08 08:29:20;;;;;;;2.83;2.63;;;23.60;68.00;;;;;;5071427;28;20440;-58
2022/08/08 08:31:47;;;;;;;4.13;3.73;;;23.70;67.40;;;;;;5071685;28;20522;-52
2022/08/08 08:34:14;;;;;;;3.70;3.20;;;23.60;66.40;;;;;;5058038;28;20461;-55
2022/08/08 08:36:43;;;;;;;4.63;3.80;;;23.70;66.60;;;;;;5051356;28;20448;-57
2022/08/08 08:39:10;;;;;;;2.97;2.83;;;23.80;66.30;;;;;;5051594;28;20471;-58
2022/08/08 08:41:38;;;;;;;3.50;2.93;;;23.90;65.70;;;;;;5051411;28;20448;-59
2022/08/08 08:44:06;;;;;;;3.23;3.03;;;23.90;64.80;;;;;;5051259;28;20487;-58
2022/08/08 08:46:35;;;;;;;3.23;3.03;;;23.90;63.10;;;;;;5052125;28;21026;-54
2022/08/08 08:49:02;;;;;;;3.63;3.30;;;23.90;63.40;;;;;;5071400;28;20439;-54
2022/08/08 08:51:30;;;;;;;2.90;2.70;;;23.90;62.90;;;;;;5071506;28;20521;-59
2022/08/08 08:54:01;;;;;;;2.60;2.50;;;24.00;62.50;;;;;;5071146;28;20936;-60
2022/08/08 08:56:29;;;;;;;2.93;2.77;;;24.00;61.70;;;;;;5075005;22;20556;-57
2022/08/08 08:58:57;;;;;;;2.93;2.83;;;24.10;61.30;;;;;;5031455;28;20488;-58
2022/08/08 09:01:27;;;;;;;2.90;2.80;;;24.10;60.70;;;;;;5031506;28;20448;-55
2022/08/08 09:03:59;;;;;;;2.93;2.73;;;24.10;60.70;;;;;;5032681;28;20506;-58
2022/08/08 09:06:28;;;;;;;3.17;2.97;;;24.20;60.70;;;;;;5041962;28;20602;-58
2022/08/08 09:09:04;;;;;;;2.40;2.30;;;24.20;60.20;;;;;;5051482;28;20452;-60
2022/08/08 09:11:34;;;;;;;3.30;3.10;;;24.20;59.70;;;;;;5051392;28;20952;-60
2022/08/08 09:14:01;;;;;;;3.10;2.80;;;24.20;59.60;;;;;;5051630;28;20452;-57
2022/08/08 09:16:29;;;;;;;2.60;2.40;;;24.30;59.20;;;;;;5051347;28;20503;-60
2022/08/08 09:18:57;;;;;;;2.87;2.67;;;24.30;58.90;;;;;;5055115;28;20478;-56
2022/08/08 09:21:24;;;;;;;2.67;2.50;;;24.30;58.40;;;;;;5071386;28;20453;-61
2022/08/08 09:23:54;;;;;;;2.80;2.60;;;24.30;58.60;;;;;;5071928;28;20470;-63
2022/08/08 09:26:30;;;;;;;3.00;2.80;;;24.40;58.70;;;;;;5071048;28;20526;-61
2022/08/08 09:29:00;;;;;;;3.20;2.90;;;24.40;58.50;;;;;;5071091;28;20526;-59
2022/08/08 09:31:43;;;;;;;3.60;3.20;;;24.40;58.80;;;;;;5071930;28;20450;-62
2022/08/08 09:34:12;;;;;;;3.17;2.97;;;24.50;58.20;;;;;;5072701;28;20485;-62
2022/08/08 09:36:40;;;;;;;3.57;3.37;;;24.40;57.60;;;;;;5071798;28;20458;-63
2022/08/08 09:39:10;;;;;;;3.10;2.80;;;24.40;58.10;;;;;;5073030;28;20439;-63
2022/08/08 09:41:40;;;;;;;3.47;3.00;;;24.40;58.10;;;;;;5074245;28;20497;-60
2022/08/08 09:44:17;;;;;;;3.07;2.87;;;24.40;58.00;;;;;;5072936;28;20443;-61
2022/08/08 09:46:48;;;;;;;3.23;2.93;;;24.50;58.20;;;;;;5071540;28;20575;-61
2022/08/08 09:49:16;;;;;;;3.13;2.83;;;24.50;57.90;;;;;;5073013;28;20508;-63
2022/08/08 09:51:47;;;;;;;3.27;2.93;;;24.50;58.40;;;;;;5064591;28;20443;-63
2022/08/08 09:54:19;;;;;;;2.60;2.50;;;24.60;57.70;;;;;;5058153;28;20456;-63
2022/08/08 09:56:55;;;;;;;3.90;3.03;;;24.60;57.70;;;;;;5055208;28;20808;-58
2022/08/08 09:59:26;;;;;;;3.00;2.87;;;24.60;57.70;;;;;;5055442;28;20867;-57
2022/08/08 10:01:53;;;;;;;3.17;2.97;;;24.60;57.70;;;;;;5054431;28;20499;-57
2022/08/08 10:04:22;;;;;;;2.60;2.50;;;24.60;57.60;;;;;;5054213;28;20487;-58
2022/08/08 10:06:52;;;;;;;4.03;3.80;;;24.60;57.10;;;;;;5055268;28;20484;-56
2022/08/08 10:09:29;;;;;;;2.60;2.47;;;24.60;56.90;;;;;;5055132;28;20443;-60
2022/08/08 10:11:58;;;;;;;2.10;2.00;;;24.60;57.10;;;;;;5054563;28;20475;-63
2022/08/08 10:14:31;;;;;;;3.50;2.50;;;24.60;56.90;;;;;;5054023;28;20440;-64
2022/08/08 10:16:58;;;;;;;2.60;2.50;;;24.70;56.50;;;;;;5054127;28;20539;-63
2022/08/08 10:19:34;;;;;;;3.37;3.17;;;24.70;56.60;;;;;;5054368;28;20455;-63
2022/08/08 10:22:04;;;;;;;2.40;2.30;;;24.70;56.40;;;;;;5055164;28;20444;-63
2022/08/08 10:24:32;;;;;;;3.03;2.93;;;24.70;56.20;;;;;;5054504;28;20449;-63
2022/08/08 10:27:03;;;;;;;4.17;3.20;;;24.70;56.20;;;;;;5053774;28;20515;-64
2022/08/08 10:29:40;;;;;;;3.43;3.20;;;24.70;55.80;;;;;;5054529;28;20455;-60
2022/08/08 10:35:00;;;;;;;2.63;2.53;;;24.70;56.00;;;;;;5053879;28;20423;-62
2022/08/08 10:37:28;;;;;;;2.33;2.23;;;24.80;55.90;;;;;;5054002;28;20594;-67
2022/08/08 10:39:56;;;;;;;2.67;2.40;;;24.80;55.70;;;;;;5053903;28;20535;-64
2022/08/08 10:42:32;;;;;;;2.73;2.53;;;24.80;55.30;;;;;;5054408;28;20455;-61
2022/08/08 10:45:01;;;;;;;2.50;2.40;;;24.80;55.20;;;;;;5054179;28;20825;-58
2022/08/08 10:47:28;;;;;;;3.67;3.37;;;24.90;55.50;;;;;;5067825;28;20486;-57
2022/08/08 10:49:56;;;;;;;3.83;3.63;;;24.80;55.00;;;;;;5074594;28;20478;-59
2022/08/08 10:52:28;;;;;;;2.47;2.27;;;24.90;55.00;;;;;;5075478;28;20501;-60
2022/08/08 10:54:56;;;;;;;2.83;2.63;;;24.90;55.00;;;;;;5075545;28;20451;-61
2022/08/08 10:57:24;;;;;;;2.43;2.33;;;25.00;55.30;;;;;;5073961;28;20560;-60
2022/08/08 10:59:53;;;;;;;2.10;2.00;;;25.00;55.40;;;;;;5076329;28;20469;-60
2022/08/08 11:02:25;;;;;;;2.53;2.43;;;25.00;55.70;;;;;;5077380;28;20451;-53
2022/08/08 11:04:52;;;;;;;2.37;2.17;;;25.00;55.90;;;;;;5076052;28;20505;-58
2022/08/08 11:07:29;;;;;;;5.23;3.10;;;25.10;56.30;;;;;;5074017;28;20495;-62
2022/08/08 11:09:56;;;;;;;2.37;2.27;;;25.10;56.50;;;;;;5055709;28;20448;-60
2022/08/08 11:12:25;;;;;;;3.50;2.73;;;25.10;56.30;;;;;;5054133;28;20856;-58
2022/08/08 11:14:55;;;;;;;3.10;2.90;;;25.10;56.40;;;;;;5053716;28;20483;-56
2022/08/08 11:17:25;;;;;;;4.43;2.47;;;25.10;57.20;;;;;;5053547;28;20981;-62
2022/08/08 11:19:53;;;;;;;3.77;2.70;;;25.20;57.50;;;;;;5053065;28;20929;-60
2022/08/08 11:22:25;;;;;;;3.27;2.97;;;25.20;57.70;;;;;;5053210;28;20532;-59
2022/08/08 11:24:55;;;;;;;9.87;2.87;;;25.20;58.00;;;;;;5054273;28;20528;-60
2022/08/08 11:27:28;;;;;;;4.63;3.00;;;25.20;58.80;;;;;;5052853;28;20595;-60
2022/08/08 11:29:57;;;;;;;2.67;2.57;;;25.30;59.50;;;;;;5052836;28;20459;-60
2022/08/08 11:32:26;;;;;;;3.60;2.47;;;25.30;59.40;;;;;;5054559;28;20454;-56
2022/08/08 11:34:58;;;;;;;3.53;2.67;;;25.30;60.30;;;;;;5055633;28;20440;-52
2022/08/08 11:37:27;;;;;;;3.23;2.80;;;25.40;59.40;;;;;;5054103;28;20464;-61
2022/08/08 11:39:56;;;;;;;5.13;3.30;;;25.40;59.50;;;;;;5053153;28;20476;-59
2022/08/08 11:42:26;;;;;;;2.73;2.53;;;25.40;59.40;;;;;;5072767;28;20450;-60
2022/08/08 11:44:53;;;;;;;2.90;2.60;;;25.40;59.50;;;;;;5073175;28;20454;-55
2022/08/08 11:47:22;;;;;;;2.70;2.60;;;25.40;59.60;;;;;;5072106;28;20571;-51
2022/08/08 11:49:51;;;;;;;2.40;2.20;;;25.50;59.20;;;;;;5073043;28;20505;-55
2022/08/08 11:52:19;;;;;;;9.20;2.50;;;25.50;60.00;;;;;;5076778;28;20537;-61
2022/08/08 11:54:47;;;;;;;3.10;2.90;;;25.50;59.60;;;;;;5073582;28;20450;-56
2022/08/08 11:57:19;;;;;;;2.57;2.47;;;25.50;59.50;;;;;;5071950;28;20520;-59
2022/08/08 11:59:52;;;;;;;3.40;2.77;;;25.50;59.40;;;;;;5074576;28;20439;-59
2022/08/08 12:02:20;;;;;;;2.90;2.60;;;25.50;59.30;;;;;;5073505;28;20479;-59
2022/08/08 12:04:47;;;;;;;2.87;2.37;;;25.50;59.10;;;;;;5072038;28;20520;-54
2022/08/08 12:07:14;;;;;;;2.97;2.77;;;25.50;59.20;;;;;;5075904;28;20479;-57
2022/08/08 12:09:41;;;;;;;2.70;2.50;;;25.50;59.60;;;;;;5072361;28;20479;-55
2022/08/08 12:12:08;;;;;;;2.83;2.73;;;25.60;59.40;;;;;;5070736;28;20441;-63
2022/08/08 12:14:35;;;;;;;3.67;3.37;;;25.60;59.30;;;;;;5073519;28;20473;-59
2022/08/08 12:17:03;;;;;;;2.33;2.23;;;25.60;58.70;;;;;;5073142;28;20495;-57
2022/08/08 12:19:30;;;;;;;2.63;2.50;;;25.70;58.50;;;;;;5073454;28;20474;-60
2022/08/08 12:22:07;;;;;;;3.40;3.20;;;25.70;58.40;;;;;;5073964;28;20877;-57
2022/08/08 12:24:44;;;;;;;2.10;2.00;;;25.70;58.50;;;;;;5071774;28;20857;-59
2022/08/08 12:27:18;;;;;;;2.13;2.03;;;25.70;58.40;;;;;;5072341;28;20486;-57
2022/08/08 12:29:55;;;;;;;2.50;2.40;;;25.70;58.30;;;;;;5062426;28;20448;-57
2022/08/08 12:32:23;;;;;;;2.50;2.40;;;25.70;58.20;;;;;;5055470;28;20813;-56
2022/08/08 12:35:00;;;;;;;2.30;2.20;;;25.70;57.90;;;;;;5054075;28;20725;-58
2022/08/08 12:37:29;;;;;;;3.73;3.40;;;25.80;57.60;;;;;;5052030;28;20800;-59
2022/08/08 12:39:56;;;;;;;2.40;2.30;;;25.80;58.00;;;;;;5054760;28;20537;-61
2022/08/08 12:42:24;;;;;;;3.50;3.30;;;25.80;57.90;;;;;;5051795;28;20440;-61
2022/08/08 12:45:02;;;;;;;2.70;2.50;;;25.80;58.20;;;;;;5052514;28;20451;-61
2022/08/08 12:47:30;;;;;;;2.50;2.20;;;25.80;57.90;;;;;;5051487;28;20562;-60
2022/08/08 12:49:57;;;;;;;2.93;2.73;;;25.80;57.70;;;;;;5051535;28;20484;-56
2022/08/08 12:52:25;;;;;;;2.40;2.30;;;25.90;58.00;;;;;;5051685;28;20510;-64
2022/08/08 12:55:03;;;;;;;2.60;2.33;;;25.90;57.90;;;;;;5051463;28;20536;-63
2022/08/08 12:57:30;;;;;;;2.97;2.77;;;25.90;57.80;;;;;;5051715;28;20483;-64
2022/08/08 12:59:57;;;;;;;3.13;2.93;;;25.90;57.60;;;;;;5052639;28;20533;-61
2022/08/08 13:02:26;;;;;;;3.30;3.10;;;25.90;57.90;;;;;;5064524;28;21005;-58
2022/08/08 13:04:55;;;;;;;2.50;2.30;;;25.90;57.70;;;;;;5071494;28;20478;-58
2022/08/08 13:07:34;;;;;;;2.43;2.33;;;25.90;57.60;;;;;;5071253;28;20557;-59
2022/08/08 13:10:03;;;;;;;3.20;3.00;;;26.00;57.50;;;;;;5072540;28;20443;-55
2022/08/08 13:12:34;;;;;;;2.90;2.70;;;26.00;57.50;;;;;;5073509;28;20457;-57
2022/08/08 13:15:04;;;;;;;3.17;2.70;;;26.00;57.10;;;;;;5073695;28;20493;-59
2022/08/08 13:17:32;;;;;;;3.60;3.40;;;26.00;57.00;;;;;;5069507;28;20526;-57
2022/08/08 13:20:01;;;;;;;2.80;2.70;;;26.10;56.70;;;;;;5051994;28;20521;-59
2022/08/08 13:22:28;;;;;;;2.67;2.47;;;26.10;57.10;;;;;;5051240;28;20444;-57
2022/08/08 13:24:55;;;;;;;3.03;2.83;;;26.10;57.60;;;;;;5053469;28;20880;-59
2022/08/08 13:27:28;;;;;;;2.93;2.73;;;26.20;57.60;;;;;;5054846;28;21084;-58
2022/08/08 13:29:57;;;;;;;3.10;2.90;;;26.20;56.70;;;;;;5055005;28;20486;-59